sensor_id;sensor_type;location;lat;lon;timestamp;pressure;altitude;pressure_sealevel;temperature;humidity
41967;BME280;27656;53.068;8.818;2023-11-21T00:00:43;100968.91;;;8.86;100.00
41967;BME280;27656;53.068;8.818;2023-11-21T00:03:09;100966.69;;;8.82;100.00
41967;BME280;27656;53.068;8.818;2023-11-21T00:05:37;100963.38;;;8.80;100.00
41967;BME280;27656;53.068;8.818;2023-11-21T00:08:04;100973.22;;;8.78;100.00
41967;BME280;27656;53.068;8.818;2023-11-21T00:10:31;100979.16;;;8.80;100.00
41967;BME280;27656;53.068;8.818;2023-11-21T00:12:59;100971.13;;;8.81;100.00
41967;BME280;27656;53.068;8.818;2023-11-21T00:15:26;100973.78;;;8.81;100.00
41967;BME280;27656;53.068;8.818;2023-11-21T00:17:53;100968.50;;;8.81;100.00
41967;BME280;27656;53.068;8.818;2023-11-21T00:20:21;100976.53;;;8.80;100.00
41967;BME280;27656;53.068;8.818;2023-11-21T00:22:48;100976.69;;;8.78;100.00
41967;BME280;27656;53.068;8.818;2023-11-21T00:25:15;100977.66;;;8.77;100.00
41967;BME280;27656;53.068;8.818;2023-11-21T00:27:45;100976.53;;;8.80;100.00
41967;BME280;27656;53.068;8.818;2023-11-21T00:30:12;100980.97;;;8.79;100.00
41967;BME280;27656;53.068;8.818;2023-11-21T00:32:39;100985.13;;;8.82;100.00
41967;BME280;27656;53.068;8.818;2023-11-21T00:35:08;100982.91;;;8.87;100.00
41967;BME280;27656;53.068;8.818;2023-11-21T00:37:35;100982.63;;;8.80;100.00
41967;BME280;27656;53.068;8.818;2023-11-21T00:40:02;100988.88;;;8.79;100.00
41967;BME280;27656;53.068;8.818;2023-11-21T00:42:33;100986.25;;;8.79;100.00
41967;BME280;27656;53.068;8.818;2023-11-21T00:45:04;100987.34;;;8.77;100.00
41967;BME280;27656;53.068;8.818;2023-11-21T00:47:32;100991.50;;;8.79;100.00
41967;BME280;27656;53.068;8.818;2023-11-21T00:50:03;100985.25;;;8.80;100.00
41967;BME280;27656;53.068;8.818;2023-11-21T00:52:32;100992.34;;;8.80;100.00
41967;BME280;27656;53.068;8.818;2023-11-21T00:54:59;100998.28;;;8.82;100.00
41967;BME280;27656;53.068;8.818;2023-11-21T00:57:30;100994.97;;;8.80;100.00
41967;BME280;27656;53.068;8.818;2023-11-21T01:00:05;101000.38;;;8.78;100.00
41967;BME280;27656;53.068;8.818;2023-11-21T01:02:40;101005.66;;;8.78;100.00
41967;BME280;27656;53.068;8.818;2023-11-21T01:05:06;101012.44;;;8.81;100.00
41967;BME280;27656;53.068;8.818;2023-11-21T01:07:34;101010.91;;;8.78;100.00
41967;BME280;27656;53.068;8.818;2023-11-21T01:10:01;101018.81;;;8.78;100.00
41967;BME280;27656;53.068;8.818;2023-11-21T01:12:27;101016.44;;;8.75;100.00
41967;BME280;27656;53.068;8.818;2023-11-21T01:14:54;101014.22;;;8.80;100.00
41967;BME280;27656;53.068;8.818;2023-11-21T01:17:21;101015.34;;;8.87;100.00
41967;BME280;27656;53.068;8.818;2023-11-21T01:19:49;101016.59;;;8.83;100.00
41967;BME280;27656;53.068;8.818;2023-11-21T01:22:15;101022.41;;;8.77;100.00
41967;BME280;27656;53.068;8.818;2023-11-21T01:24:43;101016.44;;;8.75;100.00
41967;BME280;27656;53.068;8.818;2023-11-21T01:27:09;101032.66;;;8.70;100.00
41967;BME280;27656;53.068;8.818;2023-11-21T01:29:36;101038.22;;;8.67;100.00
41967;BME280;27656;53.068;8.818;2023-11-21T01:32:03;101038.34;;;8.76;100.00
41967;BME280;27656;53.068;8.818;2023-11-21T01:34:32;101035.44;;;8.69;100.00
41967;BME280;27656;53.068;8.818;2023-11-21T01:36:58;101038.50;;;8.64;100.00
41967;BME280;27656;53.068;8.818;2023-11-21T01:39:25;101042.94;;;8.64;100.00
41967;BME280;27656;53.068;8.818;2023-11-21T01:42:01;101045.28;;;8.67;100.00
41967;BME280;27656;53.068;8.818;2023-11-21T01:44:28;101042.38;;;8.60;100.00
41967;BME280;27656;53.068;8.818;2023-11-21T01:46:56;101047.09;;;8.66;100.00
41967;BME280;27656;53.068;8.818;2023-11-21T01:49:24;101052.19;;;8.58;100.00
41967;BME280;27656;53.068;8.818;2023-11-21T01:51:52;101052.34;;;8.57;100.00
41967;BME280;27656;53.068;8.818;2023-11-21T01:54:19;101055.25;;;8.54;100.00
41967;BME280;27656;53.068;8.818;2023-11-21T01:56:47;101055.41;;;8.52;100.00
41967;BME280;27656;53.068;8.818;2023-11-21T01:59:18;101059.81;;;8.52;100.00
41967;BME280;27656;53.068;8.818;2023-11-21T02:01:46;101053.31;;;8.56;100.00
41967;BME280;27656;53.068;8.818;2023-11-21T02:04:14;101048.03;;;8.56;100.00
41967;BME280;27656;53.068;8.818;2023-11-21T02:06:41;101064.66;;;8.56;100.00
41967;BME280;27656;53.068;8.818;2023-11-21T02:09:07;101057.16;;;8.52;100.00
41967;BME280;27656;53.068;8.818;2023-11-21T02:11:35;101068.56;;;8.52;100.00
41967;BME280;27656;53.068;8.818;2023-11-21T02:14:02;101064.25;;;8.51;100.00
41967;BME280;27656;53.068;8.818;2023-11-21T02:16:29;101069.91;;;8.56;100.00
41967;BME280;27656;53.068;8.818;2023-11-21T02:18:59;101077.56;;;8.59;100.00
41967;BME280;27656;53.068;8.818;2023-11-21T02:21:26;101083.78;;;8.58;100.00
41967;BME280;27656;53.068;8.818;2023-11-21T02:24:06;101093.06;;;8.62;100.00
41967;BME280;27656;53.068;8.818;2023-11-21T02:26:33;101100.25;;;8.60;100.00
41967;BME280;27656;53.068;8.818;2023-11-21T02:29:00;101099.44;;;8.60;100.00
41967;BME280;27656;53.068;8.818;2023-11-21T02:31:27;101104.69;;;8.60;100.00
41967;BME280;27656;53.068;8.818;2023-11-21T02:33:57;101096.81;;;8.60;100.00
41967;BME280;27656;53.068;8.818;2023-11-21T02:36:24;101102.91;;;8.60;100.00
41967;BME280;27656;53.068;8.818;2023-11-21T02:38:51;101106.22;;;8.62;100.00
41967;BME280;27656;53.068;8.818;2023-11-21T02:41:17;101106.22;;;8.62;100.00
41967;BME280;27656;53.068;8.818;2023-11-21T02:43:44;101103.59;;;8.62;100.00
41967;BME280;27656;53.068;8.818;2023-11-21T02:46:12;101100.69;;;8.65;100.00
41967;BME280;27656;53.068;8.818;2023-11-21T02:48:38;101107.06;;;8.63;100.00
41967;BME280;27656;53.068;8.818;2023-11-21T02:51:05;101109.56;;;8.64;100.00
41967;BME280;27656;53.068;8.818;2023-11-21T02:53:33;101106.34;;;8.61;100.00
41967;BME280;27656;53.068;8.818;2023-11-21T02:56:00;101106.50;;;8.59;100.00
41967;BME280;27656;53.068;8.818;2023-11-21T02:58:26;101108.56;;;8.56;100.00
41967;BME280;27656;53.068;8.818;2023-11-21T03:00:53;101120.78;;;8.57;100.00
41967;BME280;27656;53.068;8.818;2023-11-21T03:03:21;101119.22;;;8.54;100.00
41967;BME280;27656;53.068;8.818;2023-11-21T03:05:51;101119.38;;;8.53;100.00
41967;BME280;27656;53.068;8.818;2023-11-21T03:08:20;101119.38;;;8.53;100.00
41967;BME280;27656;53.068;8.818;2023-11-21T03:11:08;101133.50;;;8.52;100.00
41967;BME280;27656;53.068;8.818;2023-11-21T03:13:35;101128.38;;;8.50;100.00
41967;BME280;27656;53.068;8.818;2023-11-21T03:16:03;101129.50;;;8.47;100.00
41967;BME280;27656;53.068;8.818;2023-11-21T03:18:32;101126.16;;;8.45;100.00
41967;BME280;27656;53.068;8.818;2023-11-21T03:20:59;101138.59;;;8.43;100.00
41967;BME280;27656;53.068;8.818;2023-11-21T03:23:26;101140.97;;;8.46;100.00
41967;BME280;27656;53.068;8.818;2023-11-21T03:25:52;101139.44;;;8.44;100.00
41967;BME280;27656;53.068;8.818;2023-11-21T03:28:19;101152.03;;;8.40;100.00
41967;BME280;27656;53.068;8.818;2023-11-21T03:30:52;101147.84;;;8.38;100.00
41967;BME280;27656;53.068;8.818;2023-11-21T03:33:19;101146.31;;;8.35;100.00
41967;BME280;27656;53.068;8.818;2023-11-21T03:35:48;101150.72;;;8.35;100.00
41967;BME280;27656;53.068;8.818;2023-11-21T03:38:19;101158.78;;;8.33;100.00
41967;BME280;27656;53.068;8.818;2023-11-21T03:40:47;101167.50;;;8.34;100.00
41967;BME280;27656;53.068;8.818;2023-11-21T03:43:14;101168.31;;;8.34;100.00
41967;BME280;27656;53.068;8.818;2023-11-21T03:45:40;101175.19;;;8.25;100.00
41967;BME280;27656;53.068;8.818;2023-11-21T03:48:12;101177.28;;;8.22;100.00
41967;BME280;27656;53.068;8.818;2023-11-21T03:50:38;101179.22;;;8.20;100.00
41967;BME280;27656;53.068;8.818;2023-11-21T03:53:06;101183.22;;;8.14;100.00
41967;BME280;27656;53.068;8.818;2023-11-21T03:55:32;101178.91;;;8.13;100.00
41967;BME280;27656;53.068;8.818;2023-11-21T03:58:25;101185.25;;;8.11;100.00
41967;BME280;27656;53.068;8.818;2023-11-21T04:01:05;101192.31;;;8.10;100.00
41967;BME280;27656;53.068;8.818;2023-11-21T04:03:33;101195.06;;;8.08;100.00
41967;BME280;27656;53.068;8.818;2023-11-21T04:05:59;101206.41;;;8.09;100.00
41967;BME280;27656;53.068;8.818;2023-11-21T04:08:27;101210.53;;;8.02;100.00
41967;BME280;27656;53.068;8.818;2023-11-21T04:10:57;101216.91;;;7.99;100.00
41967;BME280;27656;53.068;8.818;2023-11-21T04:13:24;101225.16;;;7.95;100.00
41967;BME280;27656;53.068;8.818;2023-11-21T04:15:51;101228.44;;;7.87;100.00
41967;BME280;27656;53.068;8.818;2023-11-21T04:18:17;101216.78;;;7.80;100.00
41967;BME280;27656;53.068;8.818;2023-11-21T04:20:48;101223.97;;;7.78;100.00
41967;BME280;27656;53.068;8.818;2023-11-21T04:23:15;101232.13;;;7.75;100.00
41967;BME280;27656;53.068;8.818;2023-11-21T04:25:41;101235.94;;;7.71;100.00
41967;BME280;27656;53.068;8.818;2023-11-21T04:28:08;101244.38;;;7.64;100.00
41967;BME280;27656;53.068;8.818;2023-11-21T04:30:34;101249.19;;;7.59;100.00
41967;BME280;27656;53.068;8.818;2023-11-21T04:33:03;101242.22;;;7.58;100.00
41967;BME280;27656;53.068;8.818;2023-11-21T04:35:30;101239.16;;;7.53;100.00
41967;BME280;27656;53.068;8.818;2023-11-21T04:37:58;101263.19;;;7.49;100.00
41967;BME280;27656;53.068;8.818;2023-11-21T04:40:25;101258.38;;;7.54;100.00
41967;BME280;27656;53.068;8.818;2023-11-21T04:43:07;101261.75;;;7.44;100.00
41967;BME280;27656;53.068;8.818;2023-11-21T04:45:34;101254.03;;;7.43;100.00
41967;BME280;27656;53.068;8.818;2023-11-21T04:48:00;101268.56;;;7.47;100.00
41967;BME280;27656;53.068;8.818;2023-11-21T04:50:30;101270.50;;;7.45;100.00
41967;BME280;27656;53.068;8.818;2023-11-21T04:52:58;101279.13;;;7.36;100.00
41967;BME280;27656;53.068;8.818;2023-11-21T04:55:24;101295.00;;;7.34;100.00
41967;BME280;27656;53.068;8.818;2023-11-21T04:58:04;101288.91;;;7.34;100.00
41967;BME280;27656;53.068;8.818;2023-11-21T05:00:31;101299.06;;;7.38;100.00
41967;BME280;27656;53.068;8.818;2023-11-21T05:02:58;101301.53;;;7.40;100.00
41967;BME280;27656;53.068;8.818;2023-11-21T05:05:25;101300.34;;;7.44;100.00
41967;BME280;27656;53.068;8.818;2023-11-21T05:07:52;101308.84;;;7.36;100.00
41967;BME280;27656;53.068;8.818;2023-11-21T05:10:19;101308.97;;;7.35;100.00
41967;BME280;27656;53.068;8.818;2023-11-21T05:12:49;101308.25;;;7.33;100.00
41967;BME280;27656;53.068;8.818;2023-11-21T05:15:24;101318.19;;;7.29;100.00
41967;BME280;27656;53.068;8.818;2023-11-21T05:17:53;101327.00;;;7.28;100.00
41967;BME280;27656;53.068;8.818;2023-11-21T05:20:20;101328.09;;;7.26;100.00
41967;BME280;27656;53.068;8.818;2023-11-21T05:22:47;101323.19;;;7.21;100.00
41967;BME280;27656;53.068;8.818;2023-11-21T05:25:17;101332.03;;;7.20;100.00
41967;BME280;27656;53.068;8.818;2023-11-21T05:27:47;101341.59;;;7.21;100.00
41967;BME280;27656;53.068;8.818;2023-11-21T05:30:27;101336.69;;;7.16;100.00
41967;BME280;27656;53.068;8.818;2023-11-21T05:32:57;101342.66;;;7.18;100.00
41967;BME280;27656;53.068;8.818;2023-11-21T05:35:24;101346.25;;;7.17;100.00
41967;BME280;27656;53.068;8.818;2023-11-21T05:37:51;101345.91;;;7.11;100.00
41967;BME280;27656;53.068;8.818;2023-11-21T05:40:18;101364.53;;;7.08;100.00
41967;BME280;27656;53.068;8.818;2023-11-21T05:42:58;101365.84;;;7.02;100.00
41967;BME280;27656;53.068;8.818;2023-11-21T05:45:25;101372.16;;;6.99;100.00
41967;BME280;27656;53.068;8.818;2023-11-21T05:47:52;101380.19;;;6.98;100.00
41967;BME280;27656;53.068;8.818;2023-11-21T05:50:19;101384.00;;;6.94;100.00
41967;BME280;27656;53.068;8.818;2023-11-21T05:52:46;101389.97;;;6.96;100.00
41967;BME280;27656;53.068;8.818;2023-11-21T05:55:15;101380.63;;;6.92;100.00
41967;BME280;27656;53.068;8.818;2023-11-21T05:58:08;101391.13;;;6.92;100.00
41967;BME280;27656;53.068;8.818;2023-11-21T06:00:37;101400.09;;;6.89;100.00
41967;BME280;27656;53.068;8.818;2023-11-21T06:03:07;101402.34;;;6.83;100.00
41967;BME280;27656;53.068;8.818;2023-11-21T06:05:34;101408.91;;;6.77;100.00
41967;BME280;27656;53.068;8.818;2023-11-21T06:08:01;101414.03;;;6.78;100.00
41967;BME280;27656;53.068;8.818;2023-11-21T06:10:28;101422.28;;;6.74;100.00
41967;BME280;27656;53.068;8.818;2023-11-21T06:12:55;101433.13;;;6.69;100.00
41967;BME280;27656;53.068;8.818;2023-11-21T06:15:22;101434.88;;;6.69;100.00
41967;BME280;27656;53.068;8.818;2023-11-21T06:17:52;101432.41;;;6.67;100.00
41967;BME280;27656;53.068;8.818;2023-11-21T06:20:20;101437.75;;;6.66;100.00
41967;BME280;27656;53.068;8.818;2023-11-21T06:22:48;101433.22;;;6.68;100.00
41967;BME280;27656;53.068;8.818;2023-11-21T06:25:15;101445.88;;;6.63;100.00
41967;BME280;27656;53.068;8.818;2023-11-21T06:27:44;101453.13;;;6.59;100.00
41967;BME280;27656;53.068;8.818;2023-11-21T06:30:14;101453.38;;;6.56;100.00
41967;BME280;27656;53.068;8.818;2023-11-21T06:32:42;101458.59;;;6.56;100.00
41967;BME280;27656;53.068;8.818;2023-11-21T06:35:12;101470.75;;;6.57;100.00
41967;BME280;27656;53.068;8.818;2023-11-21T06:37:39;101479.59;;;6.56;100.00
41967;BME280;27656;53.068;8.818;2023-11-21T06:40:06;101480.66;;;6.53;100.00
41967;BME280;27656;53.068;8.818;2023-11-21T06:42:40;101487.56;;;6.54;100.00
41967;BME280;27656;53.068;8.818;2023-11-21T06:45:07;101499.97;;;6.52;100.00
41967;BME280;27656;53.068;8.818;2023-11-21T06:47:38;101505.56;;;6.48;100.00
41967;BME280;27656;53.068;8.818;2023-11-21T06:50:05;101507.34;;;6.47;100.00
41967;BME280;27656;53.068;8.818;2023-11-21T06:52:33;101515.09;;;6.49;100.00
41967;BME280;27656;53.068;8.818;2023-11-21T06:55:00;101516.06;;;6.48;100.00
41967;BME280;27656;53.068;8.818;2023-11-21T06:57:30;101515.34;;;6.46;100.00
41967;BME280;27656;53.068;8.818;2023-11-21T06:59:58;101523.69;;;6.51;100.00
41967;BME280;27656;53.068;8.818;2023-11-21T07:02:24;101531.69;;;6.49;100.00
41967;BME280;27656;53.068;8.818;2023-11-21T07:04:52;101533.56;;;6.47;100.00
41967;BME280;27656;53.068;8.818;2023-11-21T07:07:18;101547.03;;;6.43;100.00
41967;BME280;27656;53.068;8.818;2023-11-21T07:09:46;101558.47;;;6.42;100.00
41967;BME280;27656;53.068;8.818;2023-11-21T07:12:14;101552.59;;;6.38;100.00
41967;BME280;27656;53.068;8.818;2023-11-21T07:14:40;101554.72;;;6.33;100.00
41967;BME280;27656;53.068;8.818;2023-11-21T07:17:09;101561.44;;;6.37;100.00
41967;BME280;27656;53.068;8.818;2023-11-21T07:19:36;101561.09;;;6.42;100.00
41967;BME280;27656;53.068;8.818;2023-11-21T07:22:03;101560.59;;;6.36;100.00
41967;BME280;27656;53.068;8.818;2023-11-21T07:24:30;101561.53;;;6.35;100.00
41967;BME280;27656;53.068;8.818;2023-11-21T07:26:58;101562.50;;;6.34;100.00
41967;BME280;27656;53.068;8.818;2023-11-21T07:29:24;101571.91;;;6.37;100.00
41967;BME280;27656;53.068;8.818;2023-11-21T07:32:20;101563.63;;;6.43;100.00
41967;BME280;27656;53.068;8.818;2023-11-21T07:34:47;101567.81;;;6.46;100.00
41967;BME280;27656;53.068;8.818;2023-11-21T07:37:14;101575.88;;;6.43;100.00
41967;BME280;27656;53.068;8.818;2023-11-21T07:39:41;101577.44;;;6.45;100.00
41967;BME280;27656;53.068;8.818;2023-11-21T07:42:11;101588.06;;;6.44;100.00
41967;BME280;27656;53.068;8.818;2023-11-21T07:44:40;101590.44;;;6.47;100.00
41967;BME280;27656;53.068;8.818;2023-11-21T07:47:06;101587.31;;;6.42;100.00
41967;BME280;27656;53.068;8.818;2023-11-21T07:49:33;101591.00;;;6.39;100.00
41967;BME280;27656;53.068;8.818;2023-11-21T07:52:00;101602.66;;;6.35;100.00
41967;BME280;27656;53.068;8.818;2023-11-21T07:54:30;101607.69;;;6.38;100.00
41967;BME280;27656;53.068;8.818;2023-11-21T07:56:57;101619.97;;;6.37;100.00
41967;BME280;27656;53.068;8.818;2023-11-21T07:59:24;101620.19;;;6.34;100.00
41967;BME280;27656;53.068;8.818;2023-11-21T08:01:50;101624.47;;;6.35;100.00
41967;BME280;27656;53.068;8.818;2023-11-21T08:04:17;101625.44;;;6.34;100.00
41967;BME280;27656;53.068;8.818;2023-11-21T08:06:47;101628.28;;;6.31;100.00
41967;BME280;27656;53.068;8.818;2023-11-21T08:09:14;101634.22;;;6.33;100.00
41967;BME280;27656;53.068;8.818;2023-11-21T08:11:42;101639.28;;;6.36;100.00
41967;BME280;27656;53.068;8.818;2023-11-21T08:14:09;101643.34;;;6.41;100.00
41967;BME280;27656;53.068;8.818;2023-11-21T08:16:35;101641.34;;;6.44;100.00
41967;BME280;27656;53.068;8.818;2023-11-21T08:19:03;101644.25;;;6.52;100.00
41967;BME280;27656;53.068;8.818;2023-11-21T08:21:29;101650.34;;;6.53;100.00
41967;BME280;27656;53.068;8.818;2023-11-21T08:23:56;101661.19;;;6.48;100.00
41967;BME280;27656;53.068;8.818;2023-11-21T08:26:23;101656.13;;;6.45;100.00
41967;BME280;27656;53.068;8.818;2023-11-21T08:28:50;101657.72;;;6.48;100.00
41967;BME280;27656;53.068;8.818;2023-11-21T08:31:25;101661.06;;;6.50;100.00
41967;BME280;27656;53.068;8.818;2023-11-21T08:33:52;101664.06;;;6.56;100.00
41967;BME280;27656;53.068;8.818;2023-11-21T08:36:24;101676.63;;;6.64;100.00
41967;BME280;27656;53.068;8.818;2023-11-21T08:38:51;101681.38;;;6.59;100.00
41967;BME280;27656;53.068;8.818;2023-11-21T08:41:21;101684.97;;;6.58;100.00
41967;BME280;27656;53.068;8.818;2023-11-21T08:43:50;101684.13;;;6.57;100.00
41967;BME280;27656;53.068;8.818;2023-11-21T08:46:18;101687.13;;;6.64;100.00
41967;BME280;27656;53.068;8.818;2023-11-21T08:48:46;101694.47;;;6.72;100.00
41967;BME280;27656;53.068;8.818;2023-11-21T08:51:15;101691.16;;;6.57;100.00
41967;BME280;27656;53.068;8.818;2023-11-21T08:53:44;101698.19;;;6.56;100.00
41967;BME280;27656;53.068;8.818;2023-11-21T08:56:15;101699.19;;;6.67;100.00
41967;BME280;27656;53.068;8.818;2023-11-21T08:58:42;101706.47;;;6.63;100.00
41967;BME280;27656;53.068;8.818;2023-11-21T09:01:13;101704.59;;;6.52;100.00
41967;BME280;27656;53.068;8.818;2023-11-21T09:03:39;101718.63;;;6.64;100.00
41967;BME280;27656;53.068;8.818;2023-11-21T09:06:08;101724.50;;;6.68;100.00
41967;BME280;27656;53.068;8.818;2023-11-21T09:08:36;101725.78;;;6.62;100.00
41967;BME280;27656;53.068;8.818;2023-11-21T09:11:06;101739.81;;;6.74;100.00
41967;BME280;27656;53.068;8.818;2023-11-21T09:13:34;101742.22;;;6.77;100.00
41967;BME280;27656;53.068;8.818;2023-11-21T09:16:02;101751.16;;;6.74;100.00
41967;BME280;27656;53.068;8.818;2023-11-21T09:18:29;101754.84;;;6.72;100.00
41967;BME280;27656;53.068;8.818;2023-11-21T09:20:57;101756.06;;;6.79;100.00
41967;BME280;27656;53.068;8.818;2023-11-21T09:23:24;101764.16;;;6.76;100.00
41967;BME280;27656;53.068;8.818;2023-11-21T09:25:51;101768.75;;;6.85;100.00
41967;BME280;27656;53.068;8.818;2023-11-21T09:28:18;101773.66;;;7.03;100.00
41967;BME280;27656;53.068;8.818;2023-11-21T09:30:45;101765.38;;;6.96;100.00
41967;BME280;27656;53.068;8.818;2023-11-21T09:33:17;101776.88;;;7.06;100.00
41967;BME280;27656;53.068;8.818;2023-11-21T09:35:45;101786.66;;;7.04;100.00
41967;BME280;27656;53.068;8.818;2023-11-21T09:38:13;101788.84;;;7.10;100.00
41967;BME280;27656;53.068;8.818;2023-11-21T09:40:40;101786.56;;;7.06;100.00
41967;BME280;27656;53.068;8.818;2023-11-21T09:43:11;101792.03;;;6.90;100.00
41967;BME280;27656;53.068;8.818;2023-11-21T09:45:48;101801.22;;;6.84;100.00
41967;BME280;27656;53.068;8.818;2023-11-21T09:48:20;101798.03;;;6.92;100.00
41967;BME280;27656;53.068;8.818;2023-11-21T09:50:47;101800.72;;;7.03;100.00
41967;BME280;27656;53.068;8.818;2023-11-21T09:53:20;101810.59;;;7.12;100.00
41967;BME280;27656;53.068;8.818;2023-11-21T09:55:55;101826.34;;;7.12;100.00
41967;BME280;27656;53.068;8.818;2023-11-21T09:58:23;101818.00;;;7.18;100.00
41967;BME280;27656;53.068;8.818;2023-11-21T10:00:54;101819.84;;;7.05;100.00
41967;BME280;27656;53.068;8.818;2023-11-21T10:03:24;101826.34;;;7.12;100.00
41967;BME280;27656;53.068;8.818;2023-11-21T10:05:53;101826.03;;;7.04;100.00
41967;BME280;27656;53.068;8.818;2023-11-21T10:08:22;101824.66;;;7.11;100.00
41967;BME280;27656;53.068;8.818;2023-11-21T10:11:12;101829.56;;;7.16;100.00
41967;BME280;27656;53.068;8.818;2023-11-21T10:13:44;101837.69;;;7.13;100.00
41967;BME280;27656;53.068;8.818;2023-11-21T10:16:14;101839.34;;;7.14;100.00
41967;BME280;27656;53.068;8.818;2023-11-21T10:18:42;101837.03;;;7.09;100.00
41967;BME280;27656;53.068;8.818;2023-11-21T10:21:11;101837.50;;;7.03;100.00
41967;BME280;27656;53.068;8.818;2023-11-21T10:23:42;101836.53;;;7.17;100.00
41967;BME280;27656;53.068;8.818;2023-11-21T10:26:17;101835.88;;;7.26;100.00
41967;BME280;27656;53.068;8.818;2023-11-21T10:29:00;101842.28;;;7.22;100.00
41967;BME280;27656;53.068;8.818;2023-11-21T10:31:28;101841.31;;;7.23;100.00
41967;BME280;27656;53.068;8.818;2023-11-21T10:34:17;101841.44;;;7.21;100.00
41967;BME280;27656;53.068;8.818;2023-11-21T10:36:50;101850.88;;;7.24;100.00
41967;BME280;27656;53.068;8.818;2023-11-21T10:39:18;101854.56;;;7.21;100.00
41967;BME280;27656;53.068;8.818;2023-11-21T10:41:46;101843.91;;;7.36;100.00
41967;BME280;27656;53.068;8.818;2023-11-21T10:44:18;101845.03;;;7.44;100.00
41967;BME280;27656;53.068;8.818;2023-11-21T10:46:51;101847.22;;;7.51;100.00
41967;BME280;27656;53.068;8.818;2023-11-21T10:49:20;101845.31;;;7.53;100.00
41967;BME280;27656;53.068;8.818;2023-11-21T10:51:46;101847.03;;;7.41;100.00
41967;BME280;27656;53.068;8.818;2023-11-21T10:54:22;101850.00;;;7.36;100.00
41967;BME280;27656;53.068;8.818;2023-11-21T10:56:53;101845.66;;;7.48;100.00
41967;BME280;27656;53.068;8.818;2023-11-21T10:59:29;101848.28;;;7.48;100.00
41967;BME280;27656;53.068;8.818;2023-11-21T11:01:58;101852.41;;;7.63;100.00
41967;BME280;27656;53.068;8.818;2023-11-21T11:04:54;101859.84;;;7.46;100.00
41967;BME280;27656;53.068;8.818;2023-11-21T11:07:26;101861.66;;;7.45;100.00
41967;BME280;27656;53.068;8.818;2023-11-21T11:09:54;101866.91;;;7.45;100.00
41967;BME280;27656;53.068;8.818;2023-11-21T11:12:22;101863.41;;;7.44;100.00
41967;BME280;27656;53.068;8.818;2023-11-21T11:14:51;101872.16;;;7.45;100.00
41967;BME280;27656;53.068;8.818;2023-11-21T11:17:21;101875.31;;;7.61;100.00
41967;BME280;27656;53.068;8.818;2023-11-21T11:19:49;101879.97;;;7.82;100.00
41967;BME280;27656;53.068;8.818;2023-11-21T11:28:20;101888.69;;;7.58;100.00
41967;BME280;27656;53.068;8.818;2023-11-21T11:36:12;101903.47;;;7.35;100.00
41967;BME280;27656;53.068;8.818;2023-11-21T11:38:45;101908.53;;;7.38;100.00
41967;BME280;27656;53.068;8.818;2023-11-21T11:41:24;101900.66;;;7.26;100.00
41967;BME280;27656;53.068;8.818;2023-11-21T11:43:54;101894.00;;;7.46;100.00
41967;BME280;27656;53.068;8.818;2023-11-21T11:46:40;101891.56;;;7.42;100.00
41967;BME280;27656;53.068;8.818;2023-11-21T11:49:08;101879.91;;;7.71;100.00
41967;BME280;27656;53.068;8.818;2023-11-21T11:51:35;101882.53;;;7.95;100.00
41967;BME280;27656;53.068;8.818;2023-11-21T11:54:15;101894.56;;;7.86;100.00
41967;BME280;27656;53.068;8.818;2023-11-21T11:56:44;101891.56;;;7.79;100.00
41967;BME280;27656;53.068;8.818;2023-11-21T11:59:11;101890.00;;;7.77;100.00
41967;BME280;27656;53.068;8.818;2023-11-21T12:01:37;101899.88;;;7.73;100.00
41967;BME280;27656;53.068;8.818;2023-11-21T12:06:37;101905.38;;;7.70;100.00
41967;BME280;27656;53.068;8.818;2023-11-21T12:09:04;101903.97;;;7.53;100.00
41967;BME280;27656;53.068;8.818;2023-11-21T12:11:36;101921.06;;;7.59;100.00
41967;BME280;27656;53.068;8.818;2023-11-21T12:14:04;101922.53;;;7.63;100.00
41967;BME280;27656;53.068;8.818;2023-11-21T12:16:41;101932.38;;;7.48;100.00
41967;BME280;27656;53.068;8.818;2023-11-21T12:19:11;101932.03;;;7.53;100.00
41967;BME280;27656;53.068;8.818;2023-11-21T12:21:40;101937.50;;;7.50;100.00
41967;BME280;27656;53.068;8.818;2023-11-21T12:24:11;101946.56;;;7.46;100.00
41967;BME280;27656;53.068;8.818;2023-11-21T12:26:41;101945.81;;;7.43;100.00
41967;BME280;27656;53.068;8.818;2023-11-21T12:29:09;101945.63;;;7.34;100.00
41967;BME280;27656;53.068;8.818;2023-11-21T12:31:38;101946.88;;;7.28;100.00
41967;BME280;27656;53.068;8.818;2023-11-21T12:34:07;101948.69;;;7.28;100.00
41967;BME280;27656;53.068;8.818;2023-11-21T12:36:35;101954.25;;;7.36;100.00
41967;BME280;27656;53.068;8.818;2023-11-21T12:39:03;101956.34;;;7.31;100.00
41967;BME280;27656;53.068;8.818;2023-11-21T12:41:29;101957.41;;;7.28;100.00
41967;BME280;27656;53.068;8.818;2023-11-21T12:43:57;101960.03;;;7.28;100.00
41967;BME280;27656;53.068;8.818;2023-11-21T12:46:25;101965.41;;;7.27;100.00
41967;BME280;27656;53.068;8.818;2023-11-21T12:48:56;101964.31;;;7.42;100.00
41967;BME280;27656;53.068;8.818;2023-11-21T12:51:25;101964.75;;;7.36;100.00
41967;BME280;27656;53.068;8.818;2023-11-21T12:53:53;101966.19;;;7.40;100.00
41967;BME280;27656;53.068;8.818;2023-11-21T12:56:38;101977.25;;;7.32;100.00
41967;BME280;27656;53.068;8.818;2023-11-21T12:59:05;101979.69;;;7.22;100.00
41967;BME280;27656;53.068;8.818;2023-11-21T13:01:31;101982.31;;;7.22;100.00
41967;BME280;27656;53.068;8.818;2023-11-21T13:03:59;101988.53;;;7.09;100.00
41967;BME280;27656;53.068;8.818;2023-11-21T13:06:27;101983.78;;;7.14;100.00
41967;BME280;27656;53.068;8.818;2023-11-21T13:09:02;101998.50;;;7.16;100.00
41967;BME280;27656;53.068;8.818;2023-11-21T13:11:35;101999.84;;;7.09;100.00
41967;BME280;27656;53.068;8.818;2023-11-21T13:14:03;101999.75;;;7.11;100.00